Time;durP1;ratioP1;P1;durP2;ratioP2;P2;SDS_P1;SDS_P2;PMS_P1;PMS_P2;Temp;Humidity;BMP_temperature;BMP_pressure;BME280_temperature;BME280_humidity;BME280_pressure;Samples;Min_cycle;Max_cycle;Signal;HPM_P1;HPM_P2
2022/05/17 00:00:43;;;;;;;5.68;2.70;;;17.00;99.90;;;;;;6202769;23;20644;-67
2022/05/17 00:03:09;;;;;;;3.70;2.60;;;16.90;99.90;;;;;;6202154;23;20008;-68
2022/05/17 00:05:35;;;;;;;4.53;2.65;;;16.90;99.90;;;;;;6202139;23;20070;-68
2022/05/17 00:08:00;;;;;;;3.33;2.67;;;16.80;99.90;;;;;;6202411;23;20001;-68
2022/05/17 00:10:27;;;;;;;5.50;2.78;;;16.70;99.90;;;;;;6200810;23;20456;-68
2022/05/17 00:12:53;;;;;;;3.42;2.15;;;16.60;99.90;;;;;;6199479;23;20004;-68
2022/05/17 00:15:20;;;;;;;3.15;2.50;;;16.70;99.90;;;;;;6201002;23;20012;-67
2022/05/17 00:17:48;;;;;;;4.32;2.63;;;16.70;99.90;;;;;;6173331;23;20083;-67
2022/05/17 00:20:15;;;;;;;4.63;2.70;;;16.70;99.90;;;;;;6203112;23;20299;-67
2022/05/17 00:22:41;;;;;;;3.85;2.47;;;16.70;99.90;;;;;;6201348;23;20106;-67
2022/05/17 00:25:09;;;;;;;4.68;2.50;;;16.70;99.90;;;;;;6201758;23;20217;-67
2022/05/17 00:27:35;;;;;;;4.05;2.78;;;16.80;99.90;;;;;;6201233;23;20000;-68
2022/05/17 00:30:01;;;;;;;6.22;2.85;;;16.80;99.90;;;;;;6203564;23;20031;-67
2022/05/17 00:32:27;;;;;;;4.05;3.00;;;16.80;99.90;;;;;;6198640;23;20039;-67
2022/05/17 00:34:52;;;;;;;3.65;2.60;;;16.70;99.90;;;;;;6204651;23;20083;-67
2022/05/17 00:37:20;;;;;;;6.93;2.80;;;16.70;99.90;;;;;;6204450;23;20028;-67
2022/05/17 00:39:45;;;;;;;3.88;2.90;;;16.70;99.90;;;;;;6203415;23;20012;-67
2022/05/17 00:42:11;;;;;;;5.85;2.53;;;16.60;99.90;;;;;;6200752;23;20012;-67
2022/05/17 00:44:43;;;;;;;3.67;2.42;;;16.60;99.90;;;;;;6201249;23;20005;-67
2022/05/17 00:47:32;;;;;;;5.05;2.40;;;16.50;99.90;;;;;;6197933;23;20051;-67
2022/05/17 00:50:21;;;;;;;3.92;2.50;;;16.50;99.90;;;;;;6202920;23;20028;-66
2022/05/17 00:52:58;;;;;;;4.57;2.70;;;16.50;99.90;;;;;;6202791;23;20056;-66
2022/05/17 00:55:42;;;;;;;3.55;2.70;;;16.30;99.90;;;;;;6201528;23;20128;-66
2022/05/17 00:58:25;;;;;;;5.68;2.78;;;16.30;99.90;;;;;;6202756;23;20472;-66
2022/05/17 01:01:17;;;;;;;3.83;2.55;;;16.10;99.90;;;;;;6198019;23;20083;-66
2022/05/17 01:03:55;;;;;;;4.57;2.92;;;16.00;99.90;;;;;;6202987;23;20429;-66
2022/05/17 01:06:22;;;;;;;3.58;2.53;;;16.00;99.90;;;;;;6202416;23;20031;-66
2022/05/17 01:08:49;;;;;;;6.50;2.90;;;15.90;99.90;;;;;;6205663;23;20034;-66
2022/05/17 01:11:15;;;;;;;3.90;2.80;;;16.00;99.90;;;;;;6148294;23;20013;-66
2022/05/17 01:16:26;;;;;;;4.43;2.50;;;16.10;99.90;;;;;;6199540;23;20031;-66
2022/05/17 01:18:52;;;;;;;5.20;2.80;;;16.10;99.90;;;;;;6203081;23;20092;-66
2022/05/17 01:21:18;;;;;;;4.20;2.97;;;16.20;99.90;;;;;;6202950;23;20004;-66
2022/05/17 01:23:44;;;;;;;5.68;2.58;;;16.10;99.90;;;;;;6202986;23;20106;-66
2022/05/17 01:26:17;;;;;;;4.20;3.10;;;16.10;99.90;;;;;;6206575;23;20441;-65
2022/05/17 01:28:43;;;;;;;4.63;2.45;;;16.00;99.90;;;;;;6201812;23;20009;-66
2022/05/17 01:31:09;;;;;;;3.03;2.80;;;16.00;99.90;;;;;;6202508;23;20112;-66
2022/05/17 01:33:37;;;;;;;15.75;3.08;;;16.00;99.90;;;;;;6205114;23;20035;-66
2022/05/17 01:36:06;;;;;;;29.45;3.47;;;16.00;99.90;;;;;;6203840;23;20268;-66
2022/05/17 01:38:33;;;;;;;5.65;3.50;;;16.00;99.90;;;;;;6204904;23;20004;-66
2022/05/17 01:40:59;;;;;;;3.78;3.00;;;15.90;99.90;;;;;;6205522;23;20024;-66
2022/05/17 01:43:24;;;;;;;4.00;3.00;;;15.90;99.90;;;;;;6206959;23;20412;-66
2022/05/17 01:45:50;;;;;;;3.78;3.00;;;15.90;99.90;;;;;;6177059;23;20019;-66
2022/05/17 01:48:16;;;;;;;3.70;2.80;;;15.90;99.90;;;;;;6204494;23;20337;-66
2022/05/17 01:50:42;;;;;;;2.67;2.47;;;15.90;99.90;;;;;;6203918;23;20407;-66
2022/05/17 01:53:12;;;;;;;2.72;2.53;;;15.80;99.90;;;;;;6205704;23;20047;-66
2022/05/17 01:55:38;;;;;;;3.08;2.78;;;15.80;99.90;;;;;;6206072;23;20005;-66
2022/05/17 01:58:05;;;;;;;2.90;2.33;;;15.80;99.90;;;;;;6201803;23;20024;-67
2022/05/17 02:00:31;;;;;;;2.90;2.60;;;15.70;99.90;;;;;;6204215;23;20028;-66
2022/05/17 02:02:56;;;;;;;2.65;2.40;;;15.70;99.90;;;;;;6202245;23;20035;-66
2022/05/17 02:05:24;;;;;;;3.35;2.42;;;15.60;99.90;;;;;;6204382;23;20040;-66
2022/05/17 02:07:50;;;;;;;5.10;2.83;;;15.70;99.90;;;;;;6198798;23;20005;-66
2022/05/17 02:10:20;;;;;;;3.45;2.70;;;15.60;99.90;;;;;;6204058;23;20107;-66
2022/05/17 02:12:46;;;;;;;4.82;2.50;;;15.70;99.90;;;;;;6203366;23;20000;-66
2022/05/17 02:15:12;;;;;;;3.30;2.70;;;15.70;99.90;;;;;;6200531;23;20016;-66
2022/05/17 02:17:38;;;;;;;3.80;2.83;;;15.70;99.90;;;;;;6199060;23;20023;-69
2022/05/17 02:20:07;;;;;;;4.63;2.78;;;15.70;99.90;;;;;;6151943;23;20008;-69
2022/05/17 02:22:33;;;;;;;3.53;2.70;;;15.80;99.90;;;;;;6200293;23;20012;-67
2022/05/17 02:24:59;;;;;;;12.48;3.22;;;15.80;99.90;;;;;;6203377;23;20672;-67
2022/05/17 02:27:25;;;;;;;4.22;2.88;;;15.80;99.90;;;;;;6196396;23;20015;-68
2022/05/17 02:29:50;;;;;;;5.68;2.70;;;15.80;99.90;;;;;;6199615;23;20008;-75
2022/05/17 02:32:16;;;;;;;3.45;2.85;;;15.90;99.90;;;;;;6200464;23;20677;-73
2022/05/17 02:34:42;;;;;;;3.70;2.90;;;15.80;99.90;;;;;;6174731;23;20122;-73
2022/05/17 02:37:09;;;;;;;3.60;2.70;;;15.80;99.90;;;;;;6199928;23;20021;-73
2022/05/17 02:39:34;;;;;;;3.92;2.92;;;15.80;99.90;;;;;;6199682;23;20005;-73
2022/05/17 02:42:01;;;;;;;3.22;2.65;;;15.70;99.90;;;;;;6198797;23;20416;-73
2022/05/17 02:44:28;;;;;;;8.23;3.25;;;15.70;99.90;;;;;;6197502;23;20005;-72
2022/05/17 02:46:55;;;;;;;4.53;3.10;;;15.70;99.90;;;;;;6203804;23;20009;-67
2022/05/17 02:49:21;;;;;;;3.83;3.00;;;15.70;99.90;;;;;;6203953;23;20014;-67
2022/05/17 02:51:47;;;;;;;3.08;2.83;;;15.70;99.90;;;;;;6205138;23;20033;-67
2022/05/17 02:54:12;;;;;;;3.00;2.80;;;15.70;99.90;;;;;;6206705;23;20008;-67
2022/05/17 02:56:38;;;;;;;4.68;3.15;;;15.70;99.90;;;;;;6174750;23;20120;-67
2022/05/17 02:59:05;;;;;;;3.03;2.50;;;15.70;99.90;;;;;;6203762;23;20422;-68
2022/05/17 03:01:30;;;;;;;4.40;3.17;;;15.50;99.90;;;;;;6178310;23;20009;-68
2022/05/17 03:03:56;;;;;;;5.13;3.08;;;15.40;99.90;;;;;;6204597;23;20047;-68
2022/05/17 03:06:22;;;;;;;4.00;3.05;;;15.50;99.90;;;;;;6203486;23;20103;-68
2022/05/17 03:08:48;;;;;;;3.20;2.90;;;15.60;99.90;;;;;;6202560;23;20034;-73
2022/05/17 03:11:14;;;;;;;4.15;2.85;;;15.70;99.90;;;;;;6205217;23;20087;-73
2022/05/17 03:13:40;;;;;;;6.50;3.08;;;15.70;99.90;;;;;;6202348;23;20012;-73
2022/05/17 03:16:06;;;;;;;3.50;2.72;;;15.90;99.90;;;;;;6204601;23;20015;-73
2022/05/17 03:18:33;;;;;;;3.92;3.20;;;15.90;99.90;;;;;;6201421;23;20017;-73
2022/05/17 03:20:58;;;;;;;3.83;3.40;;;16.00;99.90;;;;;;6206954;23;20105;-73
2022/05/17 03:23:24;;;;;;;7.47;3.53;;;16.00;99.90;;;;;;6205051;23;20227;-73
2022/05/17 03:25:50;;;;;;;3.25;3.03;;;16.10;99.90;;;;;;6205194;23;20013;-68
2022/05/17 03:28:15;;;;;;;2.63;2.35;;;16.10;99.90;;;;;;6203696;23;20012;-68
2022/05/17 03:30:43;;;;;;;3.67;3.13;;;16.00;99.90;;;;;;6203668;23;20355;-68
2022/05/17 03:33:09;;;;;;;3.40;2.95;;;16.10;99.90;;;;;;6204474;23;20385;-67
2022/05/17 03:35:35;;;;;;;4.30;3.38;;;16.10;99.90;;;;;;6202064;23;20015;-67
2022/05/17 03:38:01;;;;;;;4.15;3.22;;;16.10;99.90;;;;;;6204877;23;20020;-67
2022/05/17 03:40:27;;;;;;;3.97;3.47;;;16.20;99.90;;;;;;6204076;23;20522;-68
2022/05/17 03:42:52;;;;;;;4.85;4.03;;;16.30;99.90;;;;;;6202927;23;20096;-68
2022/05/17 03:45:18;;;;;;;6.35;3.58;;;16.30;99.90;;;;;;6202472;23;20034;-67
2022/05/17 03:47:44;;;;;;;6.00;3.40;;;16.40;99.90;;;;;;6193179;23;20009;-67
2022/05/17 03:50:11;;;;;;;8.00;3.70;;;16.50;99.90;;;;;;6205074;23;20127;-67
2022/05/17 03:52:37;;;;;;;8.95;3.42;;;16.50;99.90;;;;;;6204840;23;20020;-68
2022/05/17 03:55:05;;;;;;;5.25;3.00;;;16.50;99.90;;;;;;6204939;23;20434;-68
2022/05/17 03:57:30;;;;;;;5.35;3.50;;;16.40;99.90;;;;;;6202878;23;20016;-68
2022/05/17 03:59:56;;;;;;;5.07;3.28;;;16.40;99.90;;;;;;6204133;23;20432;-68
2022/05/17 04:02:23;;;;;;;16.92;4.07;;;16.50;99.90;;;;;;6199104;23;20450;-67
2022/05/17 04:04:55;;;;;;;4.50;3.42;;;16.60;99.90;;;;;;6204049;23;20046;-67
2022/05/17 04:07:22;;;;;;;6.35;3.35;;;16.50;99.90;;;;;;6204451;23;20021;-67
2022/05/17 04:09:48;;;;;;;5.32;3.47;;;16.50;99.90;;;;;;6178738;23;20012;-67
2022/05/17 04:12:14;;;;;;;3.95;2.88;;;16.50;99.90;;;;;;6202050;23;20452;-67
2022/05/17 04:14:40;;;;;;;3.95;3.33;;;16.40;99.90;;;;;;6205477;23;20009;-67
2022/05/17 04:17:06;;;;;;;5.55;4.05;;;16.40;99.90;;;;;;6204650;23;20023;-67
2022/05/17 04:19:32;;;;;;;4.45;3.13;;;16.40;99.90;;;;;;6199785;23;20004;-66
2022/05/17 04:22:00;;;;;;;25.58;4.50;;;16.40;99.90;;;;;;6204130;23;20084;-66
2022/05/17 04:24:26;;;;;;;4.30;3.90;;;16.40;99.90;;;;;;6202825;23;20086;-66
2022/05/17 04:26:53;;;;;;;3.67;3.10;;;16.50;99.90;;;;;;6176982;23;20016;-66
2022/05/17 04:29:19;;;;;;;4.90;3.60;;;16.50;99.90;;;;;;6205387;23;20001;-66
2022/05/17 04:31:45;;;;;;;5.68;3.63;;;16.50;99.90;;;;;;6175703;23;20048;-66
2022/05/17 04:34:10;;;;;;;5.70;3.75;;;16.60;99.90;;;;;;6175908;23;20028;-66
2022/05/17 04:36:36;;;;;;;7.35;3.28;;;16.70;99.90;;;;;;6203555;23;20016;-67
2022/05/17 04:39:02;;;;;;;6.40;3.58;;;16.80;99.90;;;;;;6205487;23;20043;-67
2022/05/17 04:41:28;;;;;;;10.20;3.67;;;16.80;99.90;;;;;;6202924;23;20016;-66
2022/05/17 04:43:54;;;;;;;8.60;3.67;;;16.90;99.90;;;;;;6203492;23;20036;-66
2022/05/17 04:46:20;;;;;;;4.72;3.63;;;17.00;99.90;;;;;;6203204;23;20032;-66
2022/05/17 04:48:45;;;;;;;8.25;3.97;;;17.10;99.90;;;;;;6206962;23;20005;-66
2022/05/17 04:51:12;;;;;;;5.00;3.92;;;17.10;99.90;;;;;;6204663;23;20087;-66
2022/05/17 04:53:40;;;;;;;6.25;3.92;;;17.10;99.90;;;;;;6201598;23;20028;-66
2022/05/17 04:56:07;;;;;;;5.95;3.45;;;17.10;99.90;;;;;;6203826;23;20287;-66
2022/05/17 04:58:33;;;;;;;6.90;3.35;;;17.00;99.90;;;;;;6194985;23;20363;-66
2022/05/17 05:00:59;;;;;;;4.05;3.22;;;17.00;99.90;;;;;;6204403;23;20016;-68
2022/05/17 05:03:25;;;;;;;5.88;3.20;;;17.00;99.90;;;;;;6204540;23;20394;-68
2022/05/17 05:05:51;;;;;;;10.77;3.30;;;17.10;99.90;;;;;;6204682;23;20016;-67
2022/05/17 05:08:16;;;;;;;7.97;3.45;;;17.30;99.90;;;;;;6175506;23;20008;-67
2022/05/17 05:10:45;;;;;;;6.43;3.58;;;17.40;99.90;;;;;;6204372;23;20036;-68
2022/05/17 05:13:15;;;;;;;7.50;3.15;;;17.50;99.90;;;;;;6200991;23;20019;-67
2022/05/17 05:15:41;;;;;;;7.53;3.40;;;17.60;99.90;;;;;;6201077;23;20017;-68
2022/05/17 05:18:07;;;;;;;23.17;4.50;;;17.70;99.90;;;;;;6196275;23;20024;-66
2022/05/17 05:20:34;;;;;;;24.80;4.22;;;17.80;99.90;;;;;;6170943;23;20102;-67
2022/05/17 05:23:00;;;;;;;6.22;3.08;;;17.90;99.90;;;;;;6201359;23;20118;-68
2022/05/17 05:25:26;;;;;;;5.07;3.65;;;18.00;99.90;;;;;;6201955;23;20035;-68
2022/05/17 05:27:53;;;;;;;3.88;3.53;;;18.10;99.90;;;;;;6202338;23;20009;-68
2022/05/17 05:30:19;;;;;;;4.60;3.10;;;18.20;99.90;;;;;;6202050;23;20012;-71
2022/05/17 05:32:46;;;;;;;7.47;4.63;;;18.30;99.90;;;;;;6200341;23;20016;-70
2022/05/17 05:35:15;;;;;;;6.35;3.17;;;18.30;99.90;;;;;;6208181;23;20087;-68
2022/05/17 05:37:40;;;;;;;8.00;3.53;;;18.30;99.90;;;;;;6206975;23;20017;-68
2022/05/17 05:40:08;;;;;;;5.35;2.90;;;18.40;99.90;;;;;;6205506;23;20415;-68
2022/05/17 05:42:34;;;;;;;16.20;3.38;;;18.40;99.90;;;;;;6206168;23;20080;-67
2022/05/17 05:44:59;;;;;;;3.15;2.83;;;18.50;99.90;;;;;;6179546;23;20055;-67
2022/05/17 05:47:26;;;;;;;4.07;2.30;;;18.60;99.90;;;;;;6206488;23;20008;-68
2022/05/17 05:49:51;;;;;;;3.50;2.67;;;18.60;99.90;;;;;;6209132;23;20484;-68
2022/05/17 05:52:18;;;;;;;5.15;2.83;;;18.70;99.90;;;;;;6205526;23;20000;-68
2022/05/17 05:54:44;;;;;;;5.85;2.78;;;18.60;99.90;;;;;;6207555;23;19996;-67
2022/05/17 05:57:10;;;;;;;3.63;3.10;;;18.50;99.90;;;;;;6207566;23;20071;-67
2022/05/17 05:59:36;;;;;;;5.80;3.35;;;18.50;99.90;;;;;;6208319;23;20009;-67
2022/05/17 06:02:03;;;;;;;25.00;3.80;;;18.40;99.90;;;;;;6205806;23;20600;-67
2022/05/17 06:04:28;;;;;;;31.90;5.43;;;18.40;99.90;;;;;;6181693;23;20009;-67
2022/05/17 06:06:56;;;;;;;6.63;3.10;;;18.40;99.90;;;;;;6177997;23;20461;-67
2022/05/17 06:09:24;;;;;;;8.30;3.13;;;18.50;99.90;;;;;;6208153;23;20038;-67
2022/05/17 06:11:49;;;;;;;6.63;2.97;;;18.60;99.90;;;;;;6206434;23;20483;-67
2022/05/17 06:14:16;;;;;;;6.55;2.55;;;18.60;99.90;;;;;;6208044;23;20092;-67
2022/05/17 06:16:41;;;;;;;4.72;2.70;;;18.70;99.90;;;;;;6205061;23;20048;-67
2022/05/17 06:19:07;;;;;;;4.43;2.38;;;18.70;99.90;;;;;;6205439;23;20055;-67
2022/05/17 06:21:33;;;;;;;6.30;2.85;;;18.70;99.90;;;;;;6206998;23;20412;-67
2022/05/17 06:23:59;;;;;;;5.30;3.10;;;18.80;99.90;;;;;;6202439;23;20059;-67
2022/05/17 06:26:24;;;;;;;4.85;2.83;;;18.80;99.90;;;;;;6204318;23;20001;-67
2022/05/17 06:28:50;;;;;;;4.78;3.20;;;18.80;99.90;;;;;;6207152;23;20012;-68
2022/05/17 06:31:15;;;;;;;2.47;2.28;;;18.70;99.90;;;;;;6203773;23;20723;-68
2022/05/17 06:33:41;;;;;;;2.45;1.98;;;18.70;99.90;;;;;;6178766;23;20461;-67
2022/05/17 06:36:07;;;;;;;5.15;2.47;;;18.70;99.90;;;;;;6180001;23;20020;-68
2022/05/17 06:38:33;;;;;;;3.83;2.88;;;18.80;99.90;;;;;;6206500;23;20009;-67
2022/05/17 06:40:59;;;;;;;4.20;2.50;;;18.80;99.90;;;;;;6177665;23;20045;-68
2022/05/17 06:43:26;;;;;;;7.82;2.53;;;18.80;99.90;;;;;;6206238;23;20001;-67
2022/05/17 06:45:52;;;;;;;3.70;2.28;;;18.80;99.90;;;;;;6205013;23;20706;-67
2022/05/17 06:48:19;;;;;;;3.50;2.28;;;18.90;99.90;;;;;;6207388;23;20031;-67
2022/05/17 06:50:45;;;;;;;5.10;2.35;;;18.90;99.90;;;;;;6208004;23;20063;-68
2022/05/17 06:53:11;;;;;;;5.25;2.35;;;18.90;99.90;;;;;;6206306;23;20389;-67
2022/05/17 06:55:37;;;;;;;3.40;2.50;;;18.80;99.90;;;;;;6206028;23;20307;-67
2022/05/17 06:58:04;;;;;;;5.72;2.40;;;18.90;99.90;;;;;;6206095;23;20040;-67
2022/05/17 07:00:31;;;;;;;4.32;2.83;;;18.90;99.90;;;;;;6206391;23;20008;-68
2022/05/17 07:02:58;;;;;;;8.57;2.28;;;18.90;99.90;;;;;;6206501;23;20032;-67
2022/05/17 07:05:24;;;;;;;5.47;1.92;;;18.90;99.90;;;;;;6204385;23;20009;-67
2022/05/17 07:07:50;;;;;;;6.38;2.08;;;19.00;98.70;;;;;;6201758;23;20454;-67
2022/05/17 07:13:09;;;;;;;8.55;2.67;;;19.00;98.00;;;;;;6206910;23;20047;-67
2022/05/17 07:15:42;;;;;;;5.07;2.05;;;19.10;97.40;;;;;;6204181;23;20283;-68
2022/05/17 07:18:09;;;;;;;3.70;2.17;;;19.20;97.70;;;;;;6196698;23;20042;-68
2022/05/17 07:20:36;;;;;;;2.65;1.60;;;19.20;97.80;;;;;;6200736;23;20001;-67
2022/05/17 07:23:03;;;;;;;3.55;2.10;;;19.20;97.60;;;;;;6200345;23;20021;-67
2022/05/17 07:25:30;;;;;;;6.75;2.00;;;19.30;97.30;;;;;;6205812;23;20474;-67
2022/05/17 07:27:56;;;;;;;7.20;1.85;;;19.30;97.80;;;;;;6202014;23;20088;-68
2022/05/17 07:30:22;;;;;;;4.03;2.00;;;19.20;96.40;;;;;;6199424;23;20462;-67
2022/05/17 07:32:47;;;;;;;4.25;1.90;;;19.30;96.50;;;;;;6196326;23;20486;-68
2022/05/17 07:35:13;;;;;;;6.03;2.10;;;19.30;97.60;;;;;;6200173;23;20018;-67
2022/05/17 07:37:40;;;;;;;9.52;2.10;;;19.30;97.10;;;;;;6193082;23;20024;-68
2022/05/17 07:40:06;;;;;;;7.38;2.42;;;19.30;96.40;;;;;;6201733;23;20028;-67
2022/05/17 07:42:32;;;;;;;6.75;1.88;;;19.30;96.10;;;;;;6194357;23;20016;-67
2022/05/17 07:44:58;;;;;;;4.75;2.22;;;19.40;96.70;;;;;;6196358;23;20012;-67
2022/05/17 07:47:24;;;;;;;3.90;1.83;;;19.40;96.90;;;;;;6198151;23;20016;-67
2022/05/17 07:49:49;;;;;;;16.23;4.47;;;19.40;96.70;;;;;;6200974;23;20710;-68
2022/05/17 07:52:15;;;;;;;25.60;7.88;;;19.40;96.70;;;;;;6198723;23;20013;-67
2022/05/17 07:54:43;;;;;;;9.73;3.35;;;19.40;96.40;;;;;;6199767;23;20003;-67
2022/05/17 07:57:08;;;;;;;12.43;2.90;;;19.50;96.50;;;;;;6201980;23;20012;-67
2022/05/17 07:59:34;;;;;;;5.18;2.25;;;19.50;96.00;;;;;;6205156;23;20163;-67
2022/05/17 08:02:00;;;;;;;1.92;1.70;;;19.50;95.20;;;;;;6200897;23;20063;-67
2022/05/17 08:04:29;;;;;;;12.05;2.00;;;19.50;95.20;;;;;;6202437;23;20597;-67
2022/05/17 08:06:56;;;;;;;3.63;2.45;;;19.50;96.40;;;;;;6202013;23;20015;-67
2022/05/17 08:09:23;;;;;;;10.10;2.50;;;19.40;97.20;;;;;;6196892;23;20028;-68
2022/05/17 08:11:50;;;;;;;3.58;2.13;;;19.40;97.10;;;;;;6199439;23;20012;-68
2022/05/17 08:14:16;;;;;;;6.88;2.15;;;19.50;96.60;;;;;;6198812;23;20013;-67
2022/05/17 08:16:42;;;;;;;3.60;1.77;;;19.50;96.20;;;;;;6199115;23;20437;-67
2022/05/17 08:19:09;;;;;;;3.17;2.10;;;19.50;96.50;;;;;;6204276;23;20015;-68
2022/05/17 08:21:36;;;;;;;5.93;2.38;;;19.50;96.30;;;;;;6196958;23;20761;-67
2022/05/17 08:24:02;;;;;;;5.88;2.13;;;19.50;96.70;;;;;;6198987;23;20067;-67
2022/05/17 08:29:13;;;;;;;3.17;2.17;;;19.60;96.80;;;;;;6197030;23;20023;-68
2022/05/17 08:31:39;;;;;;;3.80;1.85;;;19.60;97.00;;;;;;6196197;23;20001;-68
2022/05/17 08:34:08;;;;;;;3.53;1.92;;;19.50;96.20;;;;;;6199734;23;20012;-67
2022/05/17 08:36:33;;;;;;;4.32;2.33;;;19.50;96.80;;;;;;6199103;23;20005;-68
2022/05/17 08:38:59;;;;;;;5.07;2.45;;;19.40;97.00;;;;;;6201559;23;20023;-67
2022/05/17 08:41:26;;;;;;;3.40;2.03;;;19.40;97.20;;;;;;6199307;23;20263;-67
2022/05/17 08:44:01;;;;;;;3.60;1.80;;;19.50;97.40;;;;;;6201304;23;20009;-67
2022/05/17 08:46:46;;;;;;;2.58;2.03;;;19.50;96.50;;;;;;6200030;23;20083;-67
2022/05/17 08:49:25;;;;;;;3.67;1.70;;;19.50;96.30;;;;;;6202458;23;20034;-67
2022/05/17 08:52:07;;;;;;;4.70;1.77;;;19.50;96.50;;;;;;6200110;23;20353;-68
2022/05/17 08:55:00;;;;;;;4.93;2.27;;;19.50;96.70;;;;;;6198166;23;20012;-68
2022/05/17 08:57:43;;;;;;;4.32;2.20;;;19.50;97.20;;;;;;6200022;23;20599;-68
2022/05/17 09:00:24;;;;;;;5.50;2.60;;;19.50;97.60;;;;;;6201610;23;20004;-68
2022/05/17 09:03:21;;;;;;;5.57;2.60;;;19.40;98.80;;;;;;6197005;23;20138;-68
2022/05/17 09:06:11;;;;;;;3.78;2.53;;;19.40;99.40;;;;;;6187970;23;20015;-68
2022/05/17 09:09:03;;;;;;;4.28;2.45;;;19.40;99.90;;;;;;6199753;23;20032;-71
2022/05/17 09:11:58;;;;;;;5.05;2.63;;;19.30;99.90;;;;;;6202040;23;20028;-71
2022/05/17 09:14:32;;;;;;;5.47;2.75;;;19.20;99.90;;;;;;6204668;23;20413;-70
2022/05/17 09:17:04;;;;;;;6.03;3.20;;;19.10;99.90;;;;;;6207260;23;20559;-70
2022/05/17 09:19:30;;;;;;;5.18;2.75;;;19.10;99.90;;;;;;6198679;23;20062;-70
2022/05/17 09:21:59;;;;;;;5.90;3.15;;;19.10;99.90;;;;;;6200147;23;20008;-70
2022/05/17 09:24:28;;;;;;;4.78;2.92;;;19.10;99.90;;;;;;6202873;23;20021;-71
2022/05/17 09:27:06;;;;;;;5.93;3.10;;;19.20;99.90;;;;;;6197656;23;20132;-71
2022/05/17 09:29:44;;;;;;;4.07;2.80;;;19.40;99.90;;;;;;6198004;23;20085;-71
2022/05/17 09:32:12;;;;;;;6.05;3.03;;;19.40;99.90;;;;;;6197213;23;20016;-71
2022/05/17 09:34:43;;;;;;;4.70;2.47;;;19.50;99.90;;;;;;6194481;23;20005;-70
2022/05/17 09:37:19;;;;;;;3.10;2.63;;;19.60;99.90;;;;;;6198791;23;20001;-70
2022/05/17 09:39:51;;;;;;;4.18;2.58;;;19.60;99.90;;;;;;6204872;23;20009;-70
2022/05/17 09:42:42;;;;;;;19.67;3.80;;;19.70;99.70;;;;;;6196786;23;20000;-70
2022/05/17 09:45:15;;;;;;;16.55;3.15;;;19.70;99.70;;;;;;6200587;23;20353;-71
2022/05/17 09:47:56;;;;;;;6.38;2.47;;;19.70;99.90;;;;;;6199751;23;20560;-70
2022/05/17 09:53:14;;;;;;;7.00;2.40;;;19.70;99.90;;;;;;6197259;23;20024;-69
2022/05/17 09:55:46;;;;;;;3.70;2.45;;;19.80;99.70;;;;;;6202369;23;20000;-71
2022/05/17 09:58:27;;;;;;;5.32;2.22;;;19.70;99.40;;;;;;6200551;23;20016;-72
2022/05/17 10:00:54;;;;;;;8.82;2.55;;;19.70;99.90;;;;;;6203913;23;20385;-72
2022/05/17 10:03:26;;;;;;;3.50;1.95;;;19.70;99.10;;;;;;6176348;23;20008;-71
2022/05/17 10:05:58;;;;;;;6.43;2.42;;;19.80;97.90;;;;;;6198411;23;20012;-71
2022/05/17 10:08:28;;;;;;;;;;;19.80;97.90;;;;;;6201164;23;20012;-71
2022/05/17 10:11:20;;;;;;;3.47;2.10;;;19.80;97.50;;;;;;6206297;23;19904;-71
2022/05/17 10:14:05;;;;;;;;;;;19.80;97.70;;;;;;6204861;23;20036;-70
2022/05/17 10:16:42;;;;;;;3.20;2.00;;;19.80;96.70;;;;;;6204845;23;19919;-70
2022/05/17 10:19:17;;;;;;;3.45;2.30;;;19.90;96.90;;;;;;6178013;23;20083;-71
2022/05/17 10:22:10;;;;;;;5.45;2.33;;;19.90;96.80;;;;;;6203309;23;20009;-71
2022/05/17 10:24:47;;;;;;;4.32;2.28;;;19.90;96.40;;;;;;6198004;23;20087;-71
2022/05/17 10:27:26;;;;;;;4.78;1.95;;;19.90;96.90;;;;;;6200761;23;20024;-73
2022/05/17 10:30:00;;;;;;;10.70;2.85;;;20.00;97.00;;;;;;6201148;23;20084;-73
2022/05/17 10:33:01;;;;;;;4.00;2.25;;;20.00;96.80;;;;;;6201937;23;20155;-72
2022/05/17 10:35:49;;;;;;;4.53;2.30;;;20.10;96.90;;;;;;6202184;23;20008;-71
2022/05/17 10:38:21;;;;;;;2.95;1.70;;;20.20;95.70;;;;;;6202640;23;20687;-72
2022/05/17 10:40:50;;;;;;;2.90;1.70;;;20.30;95.40;;;;;;6202973;23;20005;-72
2022/05/17 10:43:32;;;;;;;4.57;1.48;;;20.40;96.00;;;;;;6202640;23;20008;-72
2022/05/17 10:46:04;;;;;;;3.85;1.60;;;20.60;94.60;;;;;;6202926;23;20390;-73
2022/05/17 10:48:56;;;;;;;7.30;1.90;;;20.70;93.90;;;;;;6202978;23;20705;-73
2022/05/17 10:51:26;;;;;;;3.50;2.00;;;20.80;93.00;;;;;;6195990;23;20084;-75
2022/05/17 10:54:34;;;;;;;3.53;1.70;;;20.80;93.20;;;;;;6191444;23;20405;-73
2022/05/17 10:57:18;;;;;;;6.30;1.75;;;20.80;93.00;;;;;;6118793;23;20024;-73
2022/05/17 10:59:49;;;;;;;4.57;1.63;;;20.80;92.40;;;;;;6191947;23;20281;-73
2022/05/17 11:02:49;;;;;;;6.55;1.40;;;20.90;92.90;;;;;;6200124;23;20003;-71
2022/05/17 11:05:53;;;;;;;3.38;1.73;;;21.00;91.30;;;;;;6200311;23;20396;-70
2022/05/17 11:08:48;;;;;;;7.05;1.58;;;21.00;90.50;;;;;;6200844;23;20088;-70
2022/05/17 11:11:35;;;;;;;4.70;1.50;;;21.00;90.50;;;;;;6196919;23;20011;-70
2022/05/17 11:14:41;;;;;;;2.67;1.55;;;21.00;90.10;;;;;;6201168;23;20016;-74
2022/05/17 11:17:28;;;;;;;3.85;1.80;;;20.80;88.20;;;;;;6072076;23;20025;-67
2022/05/17 11:20:05;;;;;;;4.15;1.60;;;20.60;90.00;;;;;;6204294;23;20008;-68
2022/05/17 11:23:00;;;;;;;4.82;1.70;;;20.50;90.50;;;;;;6196961;23;20008;-68
2022/05/17 11:25:52;;;;;;;3.72;1.65;;;20.50;91.00;;;;;;6202323;23;20035;-67
2022/05/17 11:28:37;;;;;;;25.80;2.85;;;20.50;91.20;;;;;;6200384;23;20051;-67
2022/05/17 11:31:33;;;;;;;24.95;2.90;;;20.50;91.30;;;;;;6201478;23;20287;-68
2022/05/17 11:34:35;;;;;;;4.25;1.67;;;20.50;91.20;;;;;;6200816;23;20004;-66
2022/05/17 11:37:06;;;;;;;27.48;3.30;;;20.50;91.90;;;;;;6196488;23;20539;-67
2022/05/17 11:39:32;;;;;;;12.30;2.85;;;20.50;92.70;;;;;;6198684;23;20032;-68
2022/05/17 11:42:21;;;;;;;3.25;1.65;;;20.50;93.60;;;;;;6199272;23;20032;-67
2022/05/17 11:44:48;;;;;;;6.80;2.03;;;20.40;92.40;;;;;;6188836;23;20007;-67
2022/05/17 11:47:29;;;;;;;2.63;1.40;;;20.30;92.50;;;;;;6196780;23;20009;-67
2022/05/17 11:50:21;;;;;;;5.17;1.80;;;20.40;92.60;;;;;;6195002;23;20001;-67
2022/05/17 11:52:49;;;;;;;2.50;1.45;;;20.30;92.90;;;;;;6194030;23;20429;-67
2022/05/17 11:55:21;;;;;;;2.05;1.48;;;20.40;92.90;;;;;;6193573;23;20008;-67
2022/05/17 11:57:47;;;;;;;2.22;1.50;;;20.40;93.30;;;;;;6193070;23;20330;-67
2022/05/17 12:00:25;;;;;;;3.90;1.83;;;20.40;93.50;;;;;;6200703;23;19997;-67
2022/05/17 12:02:58;;;;;;;2.85;1.58;;;20.40;93.30;;;;;;6195947;23;20035;-67
2022/05/17 12:05:43;;;;;;;3.10;1.73;;;20.40;93.60;;;;;;6199225;23;20035;-67
2022/05/17 12:08:37;;;;;;;5.25;2.10;;;20.50;93.70;;;;;;6198633;23;20566;-68
2022/05/17 12:11:11;;;;;;;2.38;1.70;;;20.50;93.50;;;;;;6191253;23;20019;-67
2022/05/17 12:13:48;;;;;;;5.93;2.33;;;20.50;93.20;;;;;;6186027;23;20450;-67
2022/05/17 12:16:19;;;;;;;9.45;2.58;;;20.50;92.90;;;;;;6195303;23;20013;-79
2022/05/17 12:19:00;;;;;;;7.95;1.90;;;20.50;93.10;;;;;;6185401;23;20013;-79
2022/05/17 12:22:05;;;;;;;4.53;2.08;;;20.50;93.00;;;;;;6193699;23;20048;-78
2022/05/17 12:24:30;;;;;;;4.07;1.83;;;20.50;92.60;;;;;;6130970;23;20074;-75
2022/05/17 12:27:03;;;;;;;2.10;1.80;;;20.50;92.80;;;;;;6194125;23;20009;-78
2022/05/17 12:32:20;;;;;;;5.72;2.00;;;20.50;92.80;;;;;;6194165;23;20099;-80
2022/05/17 12:34:53;;;;;;;2.88;2.00;;;20.50;93.20;;;;;;6201092;23;20083;-78
2022/05/17 12:37:25;;;;;;;3.20;2.08;;;20.50;93.20;;;;;;6203763;23;20343;-79
2022/05/17 12:45:27;;;;;;;11.43;2.15;;;20.50;93.50;;;;;;6203910;23;20023;-79
2022/05/17 12:47:55;;;;;;;2.92;2.40;;;20.40;93.60;;;;;;6202079;23;20061;-79
2022/05/17 12:50:25;;;;;;;8.60;2.60;;;20.50;93.70;;;;;;6203142;23;20047;-71
2022/05/17 12:52:56;;;;;;;4.55;2.40;;;20.50;93.80;;;;;;6200935;23;20004;-70
2022/05/17 12:55:28;;;;;;;6.47;2.77;;;20.50;93.70;;;;;;6204207;23;20032;-70
2022/05/17 12:57:55;;;;;;;5.28;2.10;;;20.60;94.10;;;;;;6204490;23;20012;-70
2022/05/17 13:00:23;;;;;;;4.35;2.15;;;20.70;93.80;;;;;;6204812;23;20012;-71
2022/05/17 13:02:54;;;;;;;8.88;2.53;;;20.70;93.30;;;;;;6202953;23;20124;-73
2022/05/17 13:05:26;;;;;;;7.47;2.58;;;20.60;93.60;;;;;;6203429;23;20058;-71
2022/05/17 13:08:07;;;;;;;5.35;2.35;;;20.60;93.50;;;;;;6205252;23;20013;-72
2022/05/17 13:10:33;;;;;;;3.03;2.38;;;20.70;93.10;;;;;;6204352;23;20017;-70
2022/05/17 13:13:16;;;;;;;3.45;2.10;;;20.70;93.50;;;;;;6203768;23;20501;-71
2022/05/17 13:15:46;;;;;;;4.68;1.83;;;20.70;93.70;;;;;;6205231;23;20028;-72
2022/05/17 13:18:12;;;;;;;3.65;1.90;;;20.70;93.70;;;;;;6206122;23;20043;-71
2022/05/17 13:20:39;;;;;;;3.35;2.08;;;20.70;93.90;;;;;;6205566;23;20100;-70
2022/05/17 13:23:07;;;;;;;5.03;2.00;;;20.70;94.20;;;;;;6204351;23;20108;-70